Childress Municipal Airport
KCDS : now visible

Airfield :











YOU CAN JOIN US ON...

 
LOGIN :

Register | Disclaimer

   EN    FR    IT 

 









Legend :    VFR   Marginal VFR   IFR   Intensive IFR   Very Intensive IFR
Visi :
Ceiling :
>= 8 km
>= 3000ft
5 to 8 km
1000 to 3000 ft
1500m to 5 km
500 to 1000 ft
800 to 1500m
200 to 500 ft
< 800m
< 200 ft
Symbols :   Thunderstorms  Fog  Heavy snow  Heavy precipitations  Wind > 20 kt






- Airport Elevation : 1954 ft


KCDS - Childress Municipal

CURRENT METAR :
  • 282053Z AUTO 11005KT 10SM CLR 08/M12 A3034 RMK AO2 SLP280 T00831122 56028

EXPIRED METARs :
  • 281953Z AUTO VRB05KT 10SM CLR 07/M13 A3036 RMK AO2 SLP287 T00721128
  • 281853Z AUTO VRB05KT 10SM CLR 06/M12 A3039 RMK AO2 SLP297 T00561122
  • 281753Z AUTO 01007KT 10SM CLR 03/M14 A3043 RMK AO2 SLP310 T00331139 10039 20000 51021
  • 281653Z AUTO 02010G16KT 10SM CLR 03/M14 A3041 RMK AO2 SLP303 T00281144

TAF KCDS
Valid from the 28 at 18:00 until the 29 at 18:00 UTC


281720Z 2818/2918 02011KT P6SM BKN200
FM291300 01011KT P6SM -SHRA BKN015
FM291700 18009KT P6SM OVC015
KZFW FIR / North America



MET'MAP, your aeronautical weather chart ! - Copyright ORBIFLY December 2007 - Disclaimer

ORBIFLY MET'MAP TEAM :

Programming & Development : Alexandra Zaïnal
Original concept : Baudouin d'Aumeries
Technical & hardware support : Manuel Goepfert
Assistance : Marc-Olivier Méhu




SOURCES & CREDITS :

   NOAA       Earth
Advisory